createdAt,value
2023-05-03T00:11:40.200Z,9.44
2023-05-03T00:26:45.861Z,9.13
2023-05-03T00:41:51.594Z,8.88
2023-05-03T00:56:58.405Z,8.44
2023-05-03T01:12:17.899Z,8.25
2023-05-03T01:27:23.423Z,8.13
2023-05-03T01:42:30.193Z,7.75
2023-05-03T01:57:35.966Z,7.44
2023-05-03T02:12:41.436Z,7.69
2023-05-03T02:27:47.252Z,7.25
2023-05-03T02:42:53.890Z,7.00
2023-05-03T02:57:59.702Z,6.81
2023-05-03T03:13:05.310Z,6.75
2023-05-03T03:28:11.032Z,6.69
2023-05-03T03:43:16.528Z,6.44
2023-05-03T03:58:22.249Z,6.44
2023-05-03T04:13:27.739Z,6.25
2023-05-03T04:28:33.288Z,6.38
2023-05-03T04:43:39.528Z,6.56
2023-05-03T04:58:45.044Z,7.25
2023-05-03T05:13:50.882Z,7.75
2023-05-03T05:28:56.576Z,8.44
2023-05-03T05:44:02.211Z,9.13
2023-05-03T05:59:07.856Z,10.19
2023-05-03T06:14:13.587Z,12.19
2023-05-03T06:29:19.374Z,16.56
2023-05-03T06:44:25.085Z,15.44
2023-05-03T06:59:30.783Z,19.94
2023-05-03T07:14:36.331Z,19.75
2023-05-03T07:29:41.802Z,21.75
2023-05-03T07:44:47.505Z,24.19
2023-05-03T07:59:53.129Z,25.44
2023-05-03T08:14:59.074Z,26.88
2023-05-03T08:30:05.245Z,27.44
2023-05-03T08:45:14.399Z,26.94
2023-05-03T09:00:21.066Z,25.69
2023-05-03T09:15:26.938Z,25.19
2023-05-03T09:30:32.722Z,25.06
2023-05-03T09:45:38.686Z,24.63
2023-05-03T10:00:52.022Z,25.25
2023-05-03T10:16:01.957Z,24.19
2023-05-03T10:31:08.351Z,24.56
2023-05-03T10:46:35.242Z,24.69
2023-05-03T11:01:42.626Z,24.06
2023-05-03T11:16:51.023Z,23.44
2023-05-03T11:31:57.025Z,23.69
2023-05-03T11:47:03.226Z,24.50
2023-05-03T12:02:13.537Z,24.69
2023-05-03T12:17:37.289Z,24.38
2023-05-03T12:32:44.454Z,25.50
2023-05-03T12:47:50.919Z,25.44
2023-05-03T13:18:23.160Z,24.06
2023-05-03T13:33:28.990Z,23.94
2023-05-03T13:48:34.804Z,24.06
2023-05-03T14:03:40.678Z,23.63
2023-05-03T14:18:47.463Z,24.63
2023-05-03T14:33:53.495Z,25.25
2023-05-03T14:48:59.573Z,25.00
2023-05-03T15:04:08.055Z,22.44
2023-05-03T15:19:13.917Z,21.00
2023-05-03T15:34:19.570Z,21.00
2023-05-03T15:49:26.562Z,20.00
2023-05-03T16:04:32.427Z,19.50
2023-05-03T16:19:38.713Z,19.06
2023-05-03T16:34:44.414Z,18.63
2023-05-03T16:49:49.969Z,18.94
2023-05-03T17:04:55.700Z,18.63
2023-05-03T17:20:01.580Z,17.94
2023-05-03T17:35:08.344Z,17.44
2023-05-03T17:50:14.454Z,16.75
2023-05-03T18:05:20.529Z,15.94
2023-05-03T18:20:26.260Z,15.69
2023-05-03T18:35:31.891Z,15.38
2023-05-03T18:50:38.487Z,14.94
2023-05-03T19:05:44.072Z,14.44
2023-05-03T19:20:51.469Z,14.56
2023-05-03T19:35:57.543Z,13.88
2023-05-03T19:51:05.448Z,13.50
2023-05-03T20:06:11.441Z,13.13
2023-05-03T20:21:17.452Z,13.25
2023-05-03T20:36:23.009Z,12.56
2023-05-03T20:51:28.854Z,12.25
2023-05-03T21:06:36.277Z,12.13
2023-05-03T21:21:42.553Z,11.56
2023-05-03T21:36:48.068Z,11.19
2023-05-03T21:51:54.007Z,11.19
2023-05-03T22:06:59.656Z,10.69
2023-05-03T22:22:05.397Z,10.13
2023-05-03T22:37:11.144Z,10.13
2023-05-03T22:52:16.755Z,10.13
2023-05-03T23:07:22.236Z,9.75
2023-05-03T23:22:27.814Z,9.50
2023-05-03T23:37:33.566Z,9.81
2023-05-03T23:52:39.349Z,9.75
